Time;durP1;ratioP1;P1;durP2;ratioP2;P2;SDS_P1;SDS_P2;PMS_P1;PMS_P2;Temp;Humidity;BMP_temperature;BMP_pressure;BME280_temperature;BME280_humidity;BME280_pressure;Samples;Min_cycle;Max_cycle;Signal;HPM_P1;HPM_P2
2022/03/03 00:02:00;;;;;;;34.15;15.38;;;;;;;;;;5094365;28;20044;-40
2022/03/03 00:04:25;;;;;;;34.08;15.57;;;;;;;;;;5094024;28;20402;-40
2022/03/03 00:06:51;;;;;;;32.85;15.02;;;;;;;;;;5094202;28;20032;-40
2022/03/03 00:09:16;;;;;;;33.95;14.10;;;;;;;;;;5094255;28;20399;-40
2022/03/03 00:11:42;;;;;;;39.15;16.23;;;;;;;;;;5093758;28;20521;-40
2022/03/03 00:14:08;;;;;;;19.83;8.95;;;;;;;;;;5094188;28;20060;-40
2022/03/03 00:16:34;;;;;;;7.63;4.45;;;;;;;;;;5093663;28;20134;-39
2022/03/03 00:19:00;;;;;;;10.40;6.07;;;;;;;;;;5093891;28;20486;-39
2022/03/03 00:21:25;;;;;;;28.67;13.00;;;;;;;;;;5093783;28;20460;-39
2022/03/03 00:23:51;;;;;;;26.27;11.60;;;;;;;;;;5093645;28;20105;-39
2022/03/03 00:26:17;;;;;;;27.67;12.85;;;;;;;;;;5093552;28;20371;-39
2022/03/03 00:28:42;;;;;;;33.15;14.80;;;;;;;;;;5093873;28;20032;-40
2022/03/03 00:31:09;;;;;;;34.80;13.07;;;;;;;;;;5093498;28;20365;-40
2022/03/03 00:33:34;;;;;;;27.00;12.38;;;;;;;;;;5093664;28;20193;-40
2022/03/03 00:36:00;;;;;;;34.88;13.32;;;;;;;;;;5093357;28;20106;-39
2022/03/03 00:38:26;;;;;;;29.42;12.75;;;;;;;;;;5093305;28;20081;-40
2022/03/03 00:40:51;;;;;;;30.60;14.80;;;;;;;;;;5092106;28;20028;-40
2022/03/03 00:43:17;;;;;;;37.53;14.77;;;;;;;;;;5093351;28;20024;-40
2022/03/03 00:45:43;;;;;;;32.22;14.13;;;;;;;;;;5091848;28;20537;-40
2022/03/03 00:48:08;;;;;;;34.10;15.27;;;;;;;;;;5093469;28;20067;-40
2022/03/03 00:50:34;;;;;;;35.53;15.32;;;;;;;;;;5093200;28;20448;-40
2022/03/03 00:53:00;;;;;;;31.70;14.68;;;;;;;;;;5093091;28;20031;-39
2022/03/03 00:55:26;;;;;;;36.80;15.40;;;;;;;;;;5091755;28;20111;-40
2022/03/03 00:57:52;;;;;;;27.25;13.23;;;;;;;;;;5091642;28;20392;-39
2022/03/03 01:00:21;;;;;;;34.80;15.70;;;;;;;;;;5092966;28;20077;-40
2022/03/03 01:02:48;;;;;;;32.17;15.43;;;;;;;;;;5093278;28;20024;-40
2022/03/03 01:05:13;;;;;;;37.42;16.85;;;;;;;;;;5093143;28;20380;-40
2022/03/03 01:07:39;;;;;;;30.58;13.43;;;;;;;;;;5093116;28;20016;-40
2022/03/03 01:10:07;;;;;;;31.20;13.98;;;;;;;;;;5092874;28;20035;-39
2022/03/03 01:12:34;;;;;;;35.08;15.77;;;;;;;;;;5092799;28;20023;-40
2022/03/03 01:14:59;;;;;;;39.33;16.40;;;;;;;;;;5092629;28;20032;-40
2022/03/03 01:17:25;;;;;;;35.53;15.98;;;;;;;;;;5092616;28;20108;-41
2022/03/03 01:19:51;;;;;;;34.17;15.38;;;;;;;;;;5092722;28;20024;-40
2022/03/03 01:22:16;;;;;;;31.35;14.80;;;;;;;;;;5092702;28;20070;-40
2022/03/03 01:24:43;;;;;;;34.97;15.27;;;;;;;;;;5092709;28;20052;-40
2022/03/03 01:27:08;;;;;;;31.67;14.45;;;;;;;;;;5092932;28;20105;-40
2022/03/03 01:29:34;;;;;;;32.15;15.50;;;;;;;;;;5092526;28;20028;-40
2022/03/03 01:32:00;;;;;;;32.83;15.18;;;;;;;;;;5092597;28;20024;-39
2022/03/03 01:34:25;;;;;;;31.67;14.60;;;;;;;;;;5092581;28;20031;-40
2022/03/03 01:36:51;;;;;;;29.83;14.55;;;;;;;;;;5092407;28;20108;-40
2022/03/03 01:39:16;;;;;;;31.58;15.75;;;;;;;;;;5091240;28;20024;-40
2022/03/03 01:41:42;;;;;;;25.98;14.13;;;;;;;;;;5092388;28;20043;-40
2022/03/03 01:44:09;;;;;;;23.30;10.93;;;;;;;;;;5092393;28;20035;-39
2022/03/03 01:46:34;;;;;;;30.65;14.88;;;;;;;;;;5092497;28;20696;-40
2022/03/03 01:49:00;;;;;;;18.63;11.43;;;;;;;;;;5096482;28;20107;-39
2022/03/03 01:51:26;;;;;;;15.82;8.60;;;;;;;;;;5096537;28;20028;-39
2022/03/03 01:53:51;;;;;;;13.35;9.20;;;;;;;;;;5096588;28;20024;-39
2022/03/03 01:56:17;;;;;;;28.20;12.57;;;;;;;;;;5096766;28;20050;-39
2022/03/03 01:58:44;;;;;;;26.73;13.07;;;;;;;;;;5096619;28;20551;-40
2022/03/03 02:01:10;;;;;;;37.05;14.32;;;;;;;;;;5096344;28;20103;-40
2022/03/03 02:03:36;;;;;;;28.63;14.82;;;;;;;;;;5096274;28;20017;-39
2022/03/03 02:06:02;;;;;;;30.38;12.80;;;;;;;;;;5096368;28;20102;-40
2022/03/03 02:08:28;;;;;;;31.55;15.25;;;;;;;;;;5096345;28;20501;-40
2022/03/03 02:10:54;;;;;;;7.07;6.57;;;;;;;;;;5096208;28;20024;-40
2022/03/03 02:13:20;;;;;;;29.90;14.82;;;;;;;;;;5096534;28;20024;-39
2022/03/03 02:15:54;;;;;;;28.83;13.65;;;;;;;;;;5096032;28;20048;-39
2022/03/03 02:18:20;;;;;;;29.08;15.13;;;;;;;;;;5096146;28;20034;-39
2022/03/03 02:20:46;;;;;;;32.67;14.70;;;;;;;;;;5096124;28;20020;-39
2022/03/03 02:23:12;;;;;;;24.70;13.25;;;;;;;;;;5095964;28;20024;-40
2022/03/03 02:25:37;;;;;;;26.70;14.38;;;;;;;;;;5094621;28;20081;-40
2022/03/03 02:28:03;;;;;;;33.58;13.88;;;;;;;;;;5096213;28;20032;-40
2022/03/03 02:30:29;;;;;;;32.90;12.93;;;;;;;;;;5096087;28;20020;-39
2022/03/03 02:32:54;;;;;;;26.60;12.75;;;;;;;;;;5095892;28;20155;-39
2022/03/03 02:35:20;;;;;;;23.38;12.40;;;;;;;;;;5095806;28;20023;-39
2022/03/03 02:37:46;;;;;;;27.17;14.70;;;;;;;;;;5095917;28;20035;-40
2022/03/03 02:40:20;;;;;;;34.45;15.27;;;;;;;;;;5095718;28;20027;-40
2022/03/03 02:42:54;;;;;;;29.33;15.05;;;;;;;;;;5095568;28;20024;-40
2022/03/03 02:45:20;;;;;;;31.33;13.80;;;;;;;;;;5095628;28;20024;-40
2022/03/03 02:47:48;;;;;;;23.95;13.43;;;;;;;;;;5095364;28;20024;-39
2022/03/03 02:50:16;;;;;;;29.02;15.23;;;;;;;;;;5095715;28;20107;-40
2022/03/03 02:52:42;;;;;;;40.38;16.23;;;;;;;;;;5095815;28;20361;-39
2022/03/03 02:55:08;;;;;;;27.10;12.90;;;;;;;;;;5095371;28;20023;-40
2022/03/03 03:00:18;;;;;;;39.35;17.02;;;;;;;;;;5094336;28;20112;-39
2022/03/03 03:02:43;;;;;;;27.88;13.88;;;;;;;;;;5095292;28;20138;-40
2022/03/03 03:05:10;;;;;;;27.02;13.18;;;;;;;;;;5095473;28;20028;-40
2022/03/03 03:07:36;;;;;;;39.05;14.70;;;;;;;;;;5093945;28;20103;-41
2022/03/03 03:10:03;;;;;;;35.90;15.50;;;;;;;;;;5095371;28;20040;-40
2022/03/03 03:12:29;;;;;;;29.55;14.45;;;;;;;;;;5095022;28;20024;-40
2022/03/03 03:14:54;;;;;;;33.45;15.07;;;;;;;;;;5094832;28;20484;-40
2022/03/03 03:17:20;;;;;;;34.22;15.85;;;;;;;;;;5094951;28;20412;-40
2022/03/03 03:19:45;;;;;;;27.15;12.25;;;;;;;;;;5095189;28;20055;-40
2022/03/03 03:22:11;;;;;;;31.65;14.60;;;;;;;;;;5095117;28;20494;-41
2022/03/03 03:24:36;;;;;;;30.25;15.13;;;;;;;;;;5094838;28;20031;-40
2022/03/03 03:27:02;;;;;;;13.80;8.60;;;;;;;;;;5095074;28;20107;-40
2022/03/03 03:29:28;;;;;;;28.58;13.80;;;;;;;;;;5094761;28;20024;-40
2022/03/03 03:31:53;;;;;;;25.40;12.82;;;;;;;;;;5094978;28;20020;-40
2022/03/03 03:34:19;;;;;;;36.20;15.63;;;;;;;;;;5094633;28;20031;-41
2022/03/03 03:36:44;;;;;;;34.45;14.68;;;;;;;;;;5094824;28;20509;-40
2022/03/03 03:39:10;;;;;;;28.08;13.50;;;;;;;;;;5094482;28;20051;-40
2022/03/03 03:41:35;;;;;;;28.63;14.02;;;;;;;;;;5094525;28;20024;-40
2022/03/03 03:44:01;;;;;;;25.98;13.75;;;;;;;;;;5094366;28;20491;-40
2022/03/03 03:46:26;;;;;;;29.65;13.55;;;;;;;;;;5094643;28;20040;-40
2022/03/03 03:48:52;;;;;;;30.02;13.70;;;;;;;;;;5094669;28;20073;-39
2022/03/03 03:51:17;;;;;;;32.15;14.80;;;;;;;;;;5094297;28;20016;-40
2022/03/03 03:53:43;;;;;;;24.67;13.05;;;;;;;;;;5094275;28;20030;-41
2022/03/03 03:56:08;;;;;;;24.52;10.93;;;;;;;;;;5094514;28;20103;-40
2022/03/03 03:58:34;;;;;;;30.67;15.63;;;;;;;;;;5094200;28;20542;-40
2022/03/03 04:01:00;;;;;;;27.58;13.93;;;;;;;;;;5094129;28;20032;-39
2022/03/03 04:03:25;;;;;;;30.13;14.48;;;;;;;;;;5094077;28;20472;-40
2022/03/03 04:05:51;;;;;;;23.75;12.60;;;;;;;;;;5093801;28;20076;-39
2022/03/03 04:08:18;;;;;;;19.77;9.07;;;;;;;;;;5094056;28;20032;-40
2022/03/03 04:10:45;;;;;;;22.17;12.60;;;;;;;;;;5093950;28;20032;-39
2022/03/03 04:13:10;;;;;;;20.30;11.85;;;;;;;;;;5093866;28;20031;-39
2022/03/03 04:15:36;;;;;;;33.42;13.73;;;;;;;;;;5093733;28;20040;-39
2022/03/03 04:18:02;;;;;;;30.95;14.23;;;;;;;;;;5093645;28;20027;-40
2022/03/03 04:20:27;;;;;;;28.80;13.60;;;;;;;;;;5093747;28;20031;-39
2022/03/03 04:22:53;;;;;;;30.15;15.48;;;;;;;;;;5093909;28;20035;-39
2022/03/03 04:25:18;;;;;;;28.90;14.70;;;;;;;;;;5093638;28;20020;-39
2022/03/03 04:27:44;;;;;;;23.42;12.10;;;;;;;;;;5093593;28;20119;-40
2022/03/03 04:30:11;;;;;;;32.13;12.85;;;;;;;;;;5093578;28;20066;-39
2022/03/03 04:32:40;;;;;;;34.30;15.02;;;;;;;;;;5093565;28;20026;-40
2022/03/03 04:35:08;;;;;;;32.47;15.45;;;;;;;;;;5093522;28;20024;-40
2022/03/03 04:37:34;;;;;;;34.72;14.80;;;;;;;;;;5093578;28;20032;-39
2022/03/03 04:39:59;;;;;;;27.60;15.07;;;;;;;;;;5093346;28;20392;-40
2022/03/03 04:42:25;;;;;;;28.88;14.68;;;;;;;;;;5093340;28;20028;-39
2022/03/03 04:44:50;;;;;;;25.08;13.88;;;;;;;;;;5093560;28;20027;-40
2022/03/03 04:47:16;;;;;;;38.88;15.10;;;;;;;;;;5093252;28;20060;-39
2022/03/03 04:49:41;;;;;;;28.40;13.55;;;;;;;;;;5093510;28;20073;-40
2022/03/03 04:52:07;;;;;;;29.95;13.95;;;;;;;;;;5091923;28;20028;-39
2022/03/03 04:54:33;;;;;;;27.23;14.50;;;;;;;;;;5092259;28;20024;-40
2022/03/03 04:56:58;;;;;;;26.33;14.15;;;;;;;;;;5093368;28;20577;-39
2022/03/03 04:59:24;;;;;;;8.73;5.82;;;;;;;;;;5093095;28;20032;-39
2022/03/03 05:01:51;;;;;;;15.48;6.80;;;;;;;;;;5093026;28;20483;-39
2022/03/03 05:04:19;;;;;;;27.38;13.48;;;;;;;;;;5093224;28;20021;-40
2022/03/03 05:06:46;;;;;;;26.33;13.02;;;;;;;;;;5092935;28;20024;-39
2022/03/03 05:09:12;;;;;;;33.22;14.48;;;;;;;;;;5093123;28;20024;-40
2022/03/03 05:11:37;;;;;;;31.38;14.00;;;;;;;;;;5092741;28;20085;-39
2022/03/03 05:14:03;;;;;;;38.10;15.43;;;;;;;;;;5091587;28;20020;-40
2022/03/03 05:16:28;;;;;;;30.35;13.93;;;;;;;;;;5092843;28;20044;-39
2022/03/03 05:18:54;;;;;;;36.05;14.77;;;;;;;;;;5092817;28;20059;-39
2022/03/03 05:21:20;;;;;;;33.13;14.88;;;;;;;;;;5092596;28;20084;-40
2022/03/03 05:23:45;;;;;;;29.73;14.25;;;;;;;;;;5092608;28;20025;-40
2022/03/03 05:26:11;;;;;;;31.15;14.77;;;;;;;;;;5093140;28;20035;-39
2022/03/03 05:28:37;;;;;;;34.22;12.77;;;;;;;;;;5092974;28;20524;-39
2022/03/03 05:31:02;;;;;;;29.67;14.45;;;;;;;;;;5092825;28;20043;-39
2022/03/03 05:33:29;;;;;;;34.40;15.52;;;;;;;;;;5093140;28;20035;-39
2022/03/03 05:36:00;;;;;;;36.75;15.43;;;;;;;;;;5092797;28;20505;-39
2022/03/03 05:38:30;;;;;;;37.40;16.75;;;;;;;;;;5091575;28;20039;-40
2022/03/03 05:40:56;;;;;;;36.33;16.00;;;;;;;;;;5093043;28;20028;-41
2022/03/03 05:43:24;;;;;;;39.20;15.70;;;;;;;;;;5092708;28;20024;-41
2022/03/03 05:45:51;;;;;;;36.40;14.65;;;;;;;;;;5092918;28;20047;-40
2022/03/03 05:48:19;;;;;;;36.65;16.55;;;;;;;;;;5091423;28;20077;-40
2022/03/03 05:50:45;;;;;;;46.90;15.95;;;;;;;;;;5092640;28;20025;-39
2022/03/03 05:53:11;;;;;;;34.65;15.57;;;;;;;;;;5092656;28;20081;-40
2022/03/03 05:55:49;;;;;;;34.22;16.00;;;;;;;;;;5092797;28;20032;-39
2022/03/03 05:58:17;;;;;;;39.92;15.85;;;;;;;;;;5092416;28;20119;-39
2022/03/03 06:00:44;;;;;;;39.08;17.38;;;;;;;;;;5092507;28;20472;-39
2022/03/03 06:03:13;;;;;;;49.45;16.90;;;;;;;;;;5092512;28;20048;-42
2022/03/03 06:05:41;;;;;;;44.58;17.33;;;;;;;;;;5092422;28;20421;-41
2022/03/03 06:08:11;;;;;;;39.03;17.00;;;;;;;;;;5092406;28;20054;-40
2022/03/03 06:10:45;;;;;;;40.40;17.85;;;;;;;;;;5092350;28;20028;-41
2022/03/03 06:13:22;;;;;;;43.80;18.73;;;;;;;;;;5092408;28;20104;-39
2022/03/03 06:15:47;;;;;;;43.08;18.27;;;;;;;;;;5092304;28;20097;-41
2022/03/03 06:18:13;;;;;;;45.92;17.42;;;;;;;;;;5092403;28;20122;-40
2022/03/03 06:20:43;;;;;;;45.90;20.02;;;;;;;;;;5092371;28;20032;-41
2022/03/03 06:23:09;;;;;;;45.03;20.70;;;;;;;;;;5092276;28;20024;-40
2022/03/03 06:25:36;;;;;;;45.78;20.90;;;;;;;;;;5092389;28;20031;-40
2022/03/03 06:28:02;;;;;;;38.95;18.85;;;;;;;;;;5092123;28;20024;-39
2022/03/03 06:30:31;;;;;;;36.40;19.27;;;;;;;;;;5092117;28;20031;-40
2022/03/03 06:32:56;;;;;;;46.35;21.58;;;;;;;;;;5092381;28;20442;-41
2022/03/03 06:35:22;;;;;;;41.97;21.73;;;;;;;;;;5095857;28;20119;-40
2022/03/03 06:37:48;;;;;;;43.08;22.38;;;;;;;;;;5095623;28;20027;-40
2022/03/03 06:40:13;;;;;;;41.15;21.63;;;;;;;;;;5095944;28;20111;-40
2022/03/03 06:42:39;;;;;;;42.95;21.65;;;;;;;;;;5095556;28;20472;-41
2022/03/03 06:45:05;;;;;;;48.03;23.70;;;;;;;;;;5095554;28;20024;-41
2022/03/03 06:47:31;;;;;;;42.85;21.50;;;;;;;;;;5095800;28;20020;-40
2022/03/03 06:49:56;;;;;;;35.67;20.13;;;;;;;;;;5095911;28;20578;-40
2022/03/03 06:52:27;;;;;;;45.95;20.88;;;;;;;;;;5095409;28;20471;-41
2022/03/03 06:54:53;;;;;;;37.67;20.38;;;;;;;;;;5095414;28;20027;-42
2022/03/03 06:57:23;;;;;;;37.72;21.00;;;;;;;;;;5095267;28;20377;-41
2022/03/03 06:59:50;;;;;;;39.85;22.58;;;;;;;;;;5095367;28;20383;-40
2022/03/03 07:02:16;;;;;;;36.70;19.50;;;;;;;;;;5095535;28;20048;-42
2022/03/03 07:04:46;;;;;;;39.03;22.70;;;;;;;;;;5095411;28;20506;-42
2022/03/03 07:07:13;;;;;;;41.92;19.75;;;;;;;;;;5095232;28;20028;-40
2022/03/03 07:09:41;;;;;;;33.75;19.45;;;;;;;;;;5095106;28;20031;-40
2022/03/03 07:12:07;;;;;;;33.53;19.13;;;;;;;;;;5095360;28;20031;-40
2022/03/03 07:14:33;;;;;;;37.47;21.25;;;;;;;;;;5095141;28;20023;-42
2022/03/03 07:17:05;;;;;;;35.30;20.08;;;;;;;;;;5094777;28;20020;-44
2022/03/03 07:20:10;;;;;;;37.33;21.92;;;;;;;;;;5094986;28;20544;-41
2022/03/03 07:22:41;;;;;;;39.58;20.92;;;;;;;;;;5012583;28;20030;-41
2022/03/03 07:25:11;;;;;;;37.97;20.85;;;;;;;;;;5012635;28;20520;-42
2022/03/03 07:27:42;;;;;;;43.05;23.42;;;;;;;;;;5056138;28;20488;-42
2022/03/03 07:30:10;;;;;;;39.70;22.38;;;;;;;;;;5093089;28;20031;-45
2022/03/03 07:32:39;;;;;;;46.67;22.08;;;;;;;;;;5094626;28;20024;-45
2022/03/03 07:35:10;;;;;;;34.90;21.70;;;;;;;;;;5094515;28;20032;-47
2022/03/03 07:37:40;;;;;;;41.45;28.52;;;;;;;;;;5092423;28;20476;-43
2022/03/03 07:40:09;;;;;;;35.13;21.73;;;;;;;;;;5092750;28;20028;-50
2022/03/03 07:42:35;;;;;;;35.05;21.70;;;;;;;;;;5092706;28;20825;-41
2022/03/03 07:45:05;;;;;;;33.92;20.55;;;;;;;;;;5093598;28;20033;-47
2022/03/03 07:47:31;;;;;;;34.60;21.38;;;;;;;;;;5094589;28;20407;-44
2022/03/03 07:49:57;;;;;;;34.58;20.02;;;;;;;;;;5094531;28;20134;-45
2022/03/03 07:52:24;;;;;;;36.78;20.77;;;;;;;;;;5094331;28;20149;-44
2022/03/03 07:54:51;;;;;;;44.08;21.85;;;;;;;;;;5094284;28;20023;-43
2022/03/03 07:57:17;;;;;;;32.85;21.10;;;;;;;;;;5094197;28;20028;-43
2022/03/03 07:59:48;;;;;;;33.40;20.52;;;;;;;;;;5092882;28;20028;-44
2022/03/03 08:02:24;;;;;;;36.95;20.90;;;;;;;;;;5094186;28;20031;-44
2022/03/03 08:04:51;;;;;;;41.78;20.38;;;;;;;;;;5094257;28;20024;-43
2022/03/03 08:07:18;;;;;;;39.25;20.50;;;;;;;;;;5089677;28;20028;-43
2022/03/03 08:09:48;;;;;;;38.65;21.20;;;;;;;;;;5085738;28;20032;-45
2022/03/03 08:12:15;;;;;;;32.97;21.23;;;;;;;;;;5092980;28;20035;-45
2022/03/03 08:14:41;;;;;;;32.42;19.45;;;;;;;;;;5091463;28;20059;-60
2022/03/03 08:17:08;;;;;;;36.20;18.85;;;;;;;;;;5091302;28;20052;-52
2022/03/03 08:19:33;;;;;;;31.15;19.60;;;;;;;;;;5092572;28;20016;-48
2022/03/03 08:21:59;;;;;;;35.78;20.60;;;;;;;;;;5092342;28;20113;-56
2022/03/03 08:24:26;;;;;;;29.63;19.98;;;;;;;;;;5092780;28;20430;-53
2022/03/03 08:26:55;;;;;;;32.28;18.05;;;;;;;;;;5093745;28;20076;-50
2022/03/03 08:29:21;;;;;;;28.75;19.08;;;;;;;;;;5093628;28;20098;-48
2022/03/03 08:31:54;;;;;;;31.95;19.52;;;;;;;;;;5093597;28;20032;-55
2022/03/03 08:34:42;;;;;;;35.08;19.77;;;;;;;;;;5091679;28;20024;-52
2022/03/03 08:37:13;;;;;;;28.05;18.02;;;;;;;;;;5091884;28;20047;-51
2022/03/03 08:39:40;;;;;;;29.33;16.70;;;;;;;;;;5091664;28;20499;-49
2022/03/03 08:42:12;;;;;;;27.35;15.65;;;;;;;;;;5092131;28;20405;-51
2022/03/03 08:44:41;;;;;;;28.17;16.60;;;;;;;;;;5092431;28;20097;-53
2022/03/03 08:47:07;;;;;;;28.03;17.33;;;;;;;;;;5092323;28;20028;-56
2022/03/03 08:49:39;;;;;;;25.98;17.23;;;;;;;;;;5091653;28;20031;-55
2022/03/03 08:52:06;;;;;;;25.33;16.00;;;;;;;;;;5091732;28;20093;-57
2022/03/03 08:54:33;;;;;;;27.23;16.55;;;;;;;;;;5091902;28;20031;-50
2022/03/03 08:56:58;;;;;;;27.73;17.85;;;;;;;;;;5091807;28;20089;-56
2022/03/03 08:59:24;;;;;;;25.35;16.67;;;;;;;;;;5091796;28;20020;-50
2022/03/03 09:01:51;;;;;;;25.85;17.80;;;;;;;;;;5092143;28;20095;-46
2022/03/03 09:04:18;;;;;;;30.65;16.83;;;;;;;;;;5091848;28;20034;-50
2022/03/03 09:06:44;;;;;;;27.70;17.48;;;;;;;;;;5091227;28;20028;-52
2022/03/03 09:09:10;;;;;;;30.73;16.10;;;;;;;;;;5091848;28;20067;-58
2022/03/03 09:11:36;;;;;;;25.45;16.40;;;;;;;;;;5090387;28;20045;-57
2022/03/03 09:14:01;;;;;;;27.02;17.25;;;;;;;;;;5089851;28;20062;-58
2022/03/03 09:16:27;;;;;;;24.35;17.30;;;;;;;;;;5089018;28;20048;-55
2022/03/03 09:18:53;;;;;;;27.95;17.10;;;;;;;;;;5090306;28;20039;-51
2022/03/03 09:21:19;;;;;;;30.00;16.88;;;;;;;;;;5091521;28;20088;-56
2022/03/03 09:23:45;;;;;;;35.25;16.65;;;;;;;;;;5091524;28;20119;-55
2022/03/03 09:26:11;;;;;;;30.40;15.75;;;;;;;;;;5091453;28;20136;-46
2022/03/03 09:28:36;;;;;;;30.55;17.50;;;;;;;;;;5090958;28;20036;-52
2022/03/03 09:31:02;;;;;;;27.70;17.33;;;;;;;;;;5090010;28;20023;-57
2022/03/03 09:33:28;;;;;;;24.70;16.88;;;;;;;;;;5091205;28;20085;-54
2022/03/03 09:35:53;;;;;;;27.02;16.67;;;;;;;;;;5091150;28;20480;-55
2022/03/03 09:38:19;;;;;;;30.05;17.48;;;;;;;;;;5090497;28;20028;-53
2022/03/03 09:40:48;;;;;;;25.42;16.55;;;;;;;;;;5091416;28;20432;-50
2022/03/03 09:43:14;;;;;;;22.92;15.57;;;;;;;;;;5090983;28;20158;-43
2022/03/03 09:45:39;;;;;;;27.20;16.77;;;;;;;;;;5091097;28;20031;-57
2022/03/03 09:48:07;;;;;;;26.27;15.98;;;;;;;;;;5090990;28;20040;-57
2022/03/03 09:50:35;;;;;;;27.52;16.13;;;;;;;;;;5090946;28;20031;-56
2022/03/03 09:53:06;;;;;;;25.45;15.30;;;;;;;;;;5090837;28;20043;-59
2022/03/03 09:55:32;;;;;;;25.60;15.55;;;;;;;;;;5090768;28;20029;-59
2022/03/03 09:57:57;;;;;;;27.75;16.30;;;;;;;;;;5090754;28;20032;-52
2022/03/03 10:00:25;;;;;;;22.73;15.93;;;;;;;;;;5090686;28;20059;-53
2022/03/03 10:03:10;;;;;;;25.55;16.45;;;;;;;;;;5090564;28;20630;-51
2022/03/03 10:05:49;;;;;;;24.98;16.90;;;;;;;;;;5090562;28;20110;-57
2022/03/03 10:08:17;;;;;;;23.63;14.73;;;;;;;;;;5091629;28;20024;-57
2022/03/03 10:10:49;;;;;;;23.45;13.77;;;;;;;;;;5094568;28;20033;-57
2022/03/03 10:13:17;;;;;;;24.60;14.30;;;;;;;;;;5094729;28;20203;-50
2022/03/03 10:16:05;;;;;;;19.55;11.98;;;;;;;;;;5093798;28;20055;-46
2022/03/03 10:18:30;;;;;;;21.52;14.45;;;;;;;;;;5094626;28;20028;-51
2022/03/03 10:21:02;;;;;;;24.77;14.65;;;;;;;;;;5094617;28;20031;-53
2022/03/03 10:23:33;;;;;;;25.48;15.23;;;;;;;;;;5094507;28;20023;-49
2022/03/03 10:26:02;;;;;;;25.85;15.68;;;;;;;;;;5094412;28;20028;-53
2022/03/03 10:28:32;;;;;;;13.63;8.57;;;;;;;;;;5094185;28;20095;-54
2022/03/03 10:31:06;;;;;;;17.15;10.35;;;;;;;;;;5094774;28;20022;-52
2022/03/03 10:33:36;;;;;;;26.38;14.50;;;;;;;;;;5094267;28;20028;-50
2022/03/03 10:36:14;;;;;;;29.88;14.43;;;;;;;;;;5094310;28;20404;-49
2022/03/03 10:39:06;;;;;;;25.38;14.38;;;;;;;;;;5094024;28;20482;-49
2022/03/03 10:41:44;;;;;;;23.55;13.13;;;;;;;;;;5089254;28;20506;-45
2022/03/03 10:44:11;;;;;;;25.00;14.85;;;;;;;;;;5093401;28;20059;-46
2022/03/03 10:46:39;;;;;;;25.38;15.90;;;;;;;;;;5094288;28;20050;-48
2022/03/03 10:49:20;;;;;;;24.20;14.45;;;;;;;;;;5094142;28;20038;-45
2022/03/03 10:51:46;;;;;;;28.27;15.73;;;;;;;;;;5093775;28;20487;-52
2022/03/03 10:54:12;;;;;;;15.80;10.25;;;;;;;;;;5093631;28;20024;-43
2022/03/03 10:56:48;;;;;;;11.60;6.93;;;;;;;;;;5093582;28;20126;-52
2022/03/03 10:59:24;;;;;;;26.92;16.05;;;;;;;;;;5093457;28;20552;-47
2022/03/03 11:01:52;;;;;;;23.15;14.25;;;;;;;;;;5093361;28;20468;-46
2022/03/03 11:04:20;;;;;;;23.08;13.50;;;;;;;;;;5093265;28;20052;-48
2022/03/03 11:06:49;;;;;;;26.13;13.88;;;;;;;;;;5093645;28;20023;-45
2022/03/03 11:09:16;;;;;;;22.13;14.15;;;;;;;;;;5093651;28;20128;-50
2022/03/03 11:11:42;;;;;;;27.65;14.30;;;;;;;;;;5093368;28;20027;-50
2022/03/03 11:14:08;;;;;;;19.92;14.00;;;;;;;;;;5093612;28;20032;-50
2022/03/03 11:16:34;;;;;;;23.40;14.63;;;;;;;;;;5093005;28;20040;-49
2022/03/03 11:19:01;;;;;;;21.30;14.70;;;;;;;;;;5092959;28;20028;-50
2022/03/03 11:21:26;;;;;;;27.55;15.95;;;;;;;;;;5091964;28;20472;-45
2022/03/03 11:23:58;;;;;;;27.23;16.10;;;;;;;;;;5093345;28;20031;-49
2022/03/03 11:26:34;;;;;;;30.25;16.00;;;;;;;;;;5092829;28;20817;-48
2022/03/03 11:29:07;;;;;;;27.17;15.77;;;;;;;;;;5093403;28;20037;-46
2022/03/03 11:31:34;;;;;;;26.67;15.63;;;;;;;;;;5093273;28;20028;-47
2022/03/03 11:34:20;;;;;;;26.10;16.15;;;;;;;;;;5091617;28;20484;-49
2022/03/03 11:36:47;;;;;;;24.88;16.15;;;;;;;;;;5092374;28;20038;-50
2022/03/03 11:39:49;;;;;;;28.88;16.33;;;;;;;;;;5092674;28;20032;-52
2022/03/03 11:42:19;;;;;;;26.70;16.70;;;;;;;;;;5092644;28;20069;-48
2022/03/03 11:44:45;;;;;;;25.98;15.98;;;;;;;;;;5093019;28;20031;-48
2022/03/03 11:47:28;;;;;;;24.80;15.77;;;;;;;;;;5092942;28;20024;-50
2022/03/03 11:50:12;;;;;;;25.48;15.60;;;;;;;;;;5092923;28;20122;-52
2022/03/03 11:52:39;;;;;;;26.45;16.27;;;;;;;;;;5092406;28;20080;-56
2022/03/03 11:55:29;;;;;;;28.55;17.17;;;;;;;;;;5091803;28;20123;-46
2022/03/03 11:58:00;;;;;;;25.25;16.10;;;;;;;;;;5092253;28;20028;-51
2022/03/03 12:00:27;;;;;;;28.58;16.77;;;;;;;;;;5092589;28;20035;-51
2022/03/03 12:03:08;;;;;;;24.85;16.73;;;;;;;;;;5092291;28;20101;-45
2022/03/03 12:05:42;;;;;;;27.25;17.80;;;;;;;;;;5092407;28;20081;-45
2022/03/03 12:08:13;;;;;;;25.33;16.60;;;;;;;;;;5091362;28;20028;-44
2022/03/03 12:11:00;;;;;;;29.85;15.90;;;;;;;;;;5092830;28;20024;-49
2022/03/03 12:13:38;;;;;;;30.83;17.08;;;;;;;;;;5092699;28;20086;-46
2022/03/03 12:16:13;;;;;;;29.58;17.67;;;;;;;;;;5092758;28;20133;-51
2022/03/03 12:18:39;;;;;;;26.45;16.40;;;;;;;;;;5092764;28;20408;-53
2022/03/03 12:21:30;;;;;;;31.15;17.98;;;;;;;;;;5092666;28;20035;-52
2022/03/03 12:24:14;;;;;;;29.45;16.33;;;;;;;;;;5092788;28;20364;-51
2022/03/03 12:26:52;;;;;;;28.42;17.15;;;;;;;;;;5092360;28;20440;-53
2022/03/03 12:29:48;;;;;;;29.33;17.95;;;;;;;;;;5092825;28;20440;-54
2022/03/03 12:32:33;;;;;;;26.75;15.60;;;;;;;;;;5090586;28;20024;-43
2022/03/03 12:35:09;;;;;;;29.67;16.70;;;;;;;;;;5092232;28;20024;-48
2022/03/03 12:37:44;;;;;;;29.27;17.15;;;;;;;;;;5092202;28;20034;-51
2022/03/03 12:40:12;;;;;;;25.20;16.60;;;;;;;;;;5092229;28;20020;-48
2022/03/03 12:42:42;;;;;;;26.55;16.75;;;;;;;;;;5092099;28;20517;-55
2022/03/03 12:45:10;;;;;;;32.20;18.03;;;;;;;;;;5092223;28;20027;-49
2022/03/03 12:47:48;;;;;;;30.40;17.42;;;;;;;;;;5091213;28;20372;-51
2022/03/03 12:50:20;;;;;;;31.20;17.00;;;;;;;;;;5092373;28;20417;-53
2022/03/03 12:53:07;;;;;;;34.50;18.95;;;;;;;;;;5091772;28;20035;-50
2022/03/03 12:55:36;;;;;;;29.48;17.50;;;;;;;;;;5092253;28;20077;-53
2022/03/03 12:58:04;;;;;;;30.08;17.50;;;;;;;;;;5090418;28;20059;-50
2022/03/03 13:00:38;;;;;;;29.80;19.65;;;;;;;;;;5091641;28;20062;-51
2022/03/03 13:03:05;;;;;;;30.75;17.90;;;;;;;;;;5090277;28;20032;-49
2022/03/03 13:05:32;;;;;;;29.63;18.15;;;;;;;;;;5091273;28;20028;-53
2022/03/03 13:07:58;;;;;;;30.95;18.25;;;;;;;;;;5089509;28;20038;-46
2022/03/03 13:10:24;;;;;;;27.55;17.10;;;;;;;;;;5091388;28;20028;-47
2022/03/03 13:12:54;;;;;;;33.55;18.05;;;;;;;;;;5090231;28;20073;-47
2022/03/03 13:15:47;;;;;;;30.23;19.27;;;;;;;;;;5089847;28;20040;-48
2022/03/03 13:18:20;;;;;;;36.75;20.67;;;;;;;;;;5089458;28;20466;-50
2022/03/03 13:20:56;;;;;;;33.55;19.10;;;;;;;;;;5091461;28;20720;-46
2022/03/03 13:23:26;;;;;;;39.67;20.15;;;;;;;;;;5091301;28;20028;-53
2022/03/03 13:26:18;;;;;;;35.08;19.08;;;;;;;;;;5091165;28;20020;-48
2022/03/03 13:28:44;;;;;;;30.90;18.15;;;;;;;;;;5091155;28;20032;-45
2022/03/03 13:31:11;;;;;;;33.85;18.40;;;;;;;;;;5091084;28;20034;-45
2022/03/03 13:33:50;;;;;;;45.40;20.40;;;;;;;;;;5091421;28;20035;-46
2022/03/03 13:36:20;;;;;;;37.17;20.85;;;;;;;;;;5091082;28;20087;-45
2022/03/03 13:38:48;;;;;;;41.97;18.55;;;;;;;;;;5090856;28;20085;-46
2022/03/03 13:41:34;;;;;;;33.40;18.98;;;;;;;;;;5089675;28;20089;-46
2022/03/03 13:44:10;;;;;;;36.60;19.55;;;;;;;;;;5090222;28;20361;-46
2022/03/03 13:46:36;;;;;;;36.63;18.50;;;;;;;;;;5090884;28;20039;-47
2022/03/03 13:49:02;;;;;;;33.38;18.70;;;;;;;;;;5090693;28;20016;-48
2022/03/03 13:51:28;;;;;;;31.30;18.80;;;;;;;;;;5091146;28;20046;-46
2022/03/03 13:53:59;;;;;;;39.15;18.90;;;;;;;;;;5090733;28;20024;-48
2022/03/03 13:56:27;;;;;;;37.08;18.50;;;;;;;;;;5090975;28;20100;-45
2022/03/03 13:59:09;;;;;;;31.15;17.60;;;;;;;;;;5090809;28;20032;-48
2022/03/03 14:01:39;;;;;;;29.85;16.83;;;;;;;;;;5090674;28;20043;-46
2022/03/03 14:04:12;;;;;;;33.97;17.73;;;;;;;;;;5090597;28;20043;-46
2022/03/03 14:06:39;;;;;;;34.08;17.63;;;;;;;;;;5090588;28;20081;-49
2022/03/03 14:09:05;;;;;;;32.35;16.92;;;;;;;;;;5089433;28;20440;-47
2022/03/03 14:11:30;;;;;;;30.40;16.40;;;;;;;;;;5090526;28;20028;-49
2022/03/03 14:13:59;;;;;;;34.40;17.98;;;;;;;;;;5090436;28;20028;-46
2022/03/03 14:16:31;;;;;;;37.85;18.42;;;;;;;;;;5088768;28;20051;-45
2022/03/03 14:18:58;;;;;;;28.38;16.20;;;;;;;;;;5090696;28;20047;-49
2022/03/03 14:21:24;;;;;;;34.17;17.48;;;;;;;;;;5090719;28;20391;-48
2022/03/03 14:23:50;;;;;;;32.85;17.67;;;;;;;;;;5090791;28;20043;-48
2022/03/03 14:26:19;;;;;;;31.90;17.50;;;;;;;;;;5090218;28;20102;-43
2022/03/03 14:28:44;;;;;;;29.40;17.77;;;;;;;;;;5090227;28;20112;-43
2022/03/03 14:31:10;;;;;;;32.78;18.48;;;;;;;;;;5090209;28;20446;-43